Fort Yukon Airport

About
Name: Fort Yukon Airport
Identifier:  FYU/PFYU
Serves:  Fort Yukon, Alaska
Owner:  State of Alaska DOT&PF - Northern Region
Public/Private:  Public
Local Time:  18. Aug 09:58 AKDT
Description: Fort Yukon Airport is a state owned, public use airport located in the city of Fort Yukon, in the Yukon–Koyukuk Census Area of the U.S. state of Alaska.
Source: Wikipedia
Location
Runways
Identifier Length (m/ft) Surface
4/22 5,000/5,000 Gravel
Flights per Day
13 flights
Distance: 168km (104mi)
Punctuality
89% (1 flights per day delayed)
Delay Average: 15 minutes
Current Weather
 5 C (Humidity: 70%)
  0kt (0km/h / 0mph) from 0°
  Broken clouds at 7,500 feet (2,286 meter)
  16km (10 mi.)
 METAR PFYU 181656Z 00000KT 10SM BKN075 05/00 A3047 RMK AO2 SLP346 T00500000

Current Flights

Departures
Number Departure To Airline
 8V361 16:10  Fairbanks  Astral Aviation
Arrivals

Current Delays

Departures
N/A
Arrivals
N/A

Destinations

Top Destinations
Airport Flights
per week
Seats
per week
  Fairbanks (FAI) 5 - 0 0
  Fairbanks (FBK) 0 8 0 1

Airlines & Planes

Top Airlines
Airline Flights
per Day
Seats
per Day
Warbelows Air Ventures 0 -
  Allied Air 0 -
  Era Alaska 0 1
Top Plane Types
Model Flights Seats
Piper PA-31-350 0.8/day - 0
Bombardier Dash 8-100 0.0/day 1/day 1.2333333333333334